• Join FlightAware (Why Join?)
  • Login
  • US Flag 
01:45AM EDT


 

Airport Tracker/Info


-or-


 

Live Flight TrackerFlight Track Log ✈ N705JB ✈ 08-May-2012 ✈ KSYR - KMCO

Flight Track Log - Related Links

Times and Time Zones

All times are in EDT time to prevent confusion due to time zone crossing. See the N705JB flight status page for this flight to view local times or setup timezone preferences in your user account.

Time Position Orientation Groundspeed Altitude Reporting Facility
EDT Latitude Longitude Course Direction KTS MPH feet Rate Location/Type
07:17AM 43.1089 -76.0922 231° Southwest 152 175 1,200  Level Boston Center
07:22AM 42.9358 -76.3792 212° Southwest 305 351 10,000 1,560 Climbing New York Center
07:23AM 42.8511 -76.4508 208° Southwest 331 381 10,800 2,220 Climbing New York Center
07:24AM 42.7672 -76.5114 210° Southwest 341 392 14,500 2,760 Climbing New York Center
07:25AM 42.6936 -76.5697 208° Southwest 341 392 16,300 1,920 Climbing New York Center
07:26AM 42.6050 -76.6350 210° Southwest 359 413 18,300 2,040 Climbing New York Center
07:27AM 42.5164 -76.7031 210° Southwest 375 432 20,400 1,800 Climbing New York Center
07:28AM 42.4211 -76.7786 209° Southwest 387 445 22,000 1,260 Climbing New York Center
07:29AM 42.3258 -76.8511 210° Southwest 399 459 23,000 540 Climbing New York Center
07:30AM 42.2217 -76.9311 209° Southwest 399 459 23,100 780 Climbing New York Center
07:31AM 42.1242 -77.0033 210° Southwest 399 459 24,600 1,380 Climbing New York Center
07:32AM 42.0264 -77.0806 212° Southwest 399 459 25,900 1,200 Climbing New York Center
07:34AM 41.8258 -77.2508 211° Southwest 429 494 28,300 1,080 Climbing New York Center
07:35AM 41.7256 -77.3328 212° Southwest 435 501 29,200 1,260 Climbing New York Center
07:36AM 41.6206 -77.4197 204° Southwest 435 501 30,800 1,200 Climbing New York Center
07:38AM 41.3864 -77.5608 201° Southwest 419 482 33,100 1,080 Climbing Cleveland Center
07:39AM 41.2753 -77.6183 202° Southwest 429 494 34,400 1,200 Climbing Cleveland Center
07:40AM 41.1664 -77.6758 201° Southwest 429 494 35,500 780 Climbing Cleveland Center
07:41AM 41.0594 -77.7300 201° Southwest 424 488 36,000 240 Climbing Cleveland Center
07:42AM 40.9503 -77.7844 201° Southwest 424 488 36,000  Level Cleveland Center
07:43AM 40.8411 -77.8411 200° South 424 488 36,000  Level Cleveland Center
07:44AM 40.7317 -77.8950 203° Southwest 424 488 36,000  Level Cleveland Center
07:45AM 40.6247 -77.9542 200° South 424 488 36,000  Level Cleveland Center
07:46AM 40.5133 -78.0078 201° Southwest 424 488 36,000  Level Cleveland Center
07:47AM 40.4019 -78.0639 202° Southwest 424 488 36,000  Level Cleveland Center
07:48AM 40.2950 -78.1194 201° Southwest 424 488 36,000  Level Cleveland Center
07:49AM 40.1836 -78.1753 200° South 424 488 36,000  Level Cleveland Center
07:50AM 40.0719 -78.2281 199° South 424 488 36,000  Level Cleveland Center
07:52AM 39.8789 -78.3169 184° South 408 470 36,000  Level Washington Center
07:53AM 39.7408 -78.3306 185° South 437 503 36,000  Level Washington Center
07:54AM 39.6197 -78.3447 184° South 442 509 36,000  Level Washington Center
07:55AM 39.4986 -78.3564 186° South 442 509 36,000  Level Washington Center
07:56AM 39.3794 -78.3733 185° South 442 509 36,000  Level Washington Center
07:57AM 39.2542 -78.3872 198° South 447 514 36,000  Level Washington Center
07:58AM 39.1425 -78.4339 202° Southwest 441 507 36,000  Level Washington Center
07:59AM 39.0286 -78.4933 203° Southwest 439 505 36,000  Level Washington Center
08:00AM 38.9167 -78.5531 203° Southwest 439 505 36,000  Level Washington Center
08:01AM 38.8067 -78.6125 203° Southwest 439 505 36,000  Level Washington Center
08:02AM 38.6947 -78.6719 202° Southwest 439 505 36,000  Level Washington Center
08:03AM 38.5847 -78.7283 203° Southwest 439 505 36,000  Level Washington Center
08:04AM 38.4833 -78.7825 202° Southwest 439 505 36,000  Level Washington Center
08:05AM 38.3692 -78.8411 204° Southwest 439 505 36,000  Level Washington Center
08:06AM 38.2631 -78.9025 202° Southwest 434 499 36,000  Level Washington Center
08:07AM 38.1489 -78.9608 202° Southwest 429 494 36,000  Level Washington Center
08:08AM 38.0219 -79.0264 202° Southwest 441 507 36,000  Level Washington Center
08:09AM 37.9033 -79.0867 201° Southwest 447 514 36,000  Level Washington Center
08:10AM 37.7869 -79.1444 204° Southwest 447 514 36,000  Level Washington Center
08:11AM 37.6703 -79.2097 201° Southwest 453 521 36,000  Level Washington Center
08:12AM 37.5517 -79.2669 200° South 460 529 36,000  Level Washington Center
08:13AM 37.4311 -79.3214 203° Southwest 460 529 36,000  Level Washington Center
08:14AM 37.3125 -79.3833 202° Southwest 465 535 36,000  Level Washington Center
08:15AM 37.2064 -79.4383 202° Southwest 470 541 36,000  Level Washington Center
08:16AM 37.0875 -79.4972 203° Southwest 464 534 36,000  Level Washington Center
08:17AM 36.9686 -79.5589 202° Southwest 464 534 36,000  Level Washington Center
08:18AM 36.8500 -79.6178 202° Southwest 464 534 36,000  Level Washington Center
08:19AM 36.7183 -79.6833 202° Southwest 464 534 36,000  Level Washington Center
08:20AM 36.6017 -79.7419 201° Southwest 464 534 36,000  Level Washington Center
08:21AM 36.4806 -79.8000 201° Southwest 464 534 36,000  Level Washington Center
08:22AM 36.3644 -79.8542 202° Southwest 466 536 36,000  Level Atlanta Center
08:23AM 36.2456 -79.9144 201° Southwest 466 536 36,000  Level Atlanta Center
08:24AM 36.1119 -79.9778 201° Southwest 466 536 36,000  Level Atlanta Center
08:25AM 35.9703 -80.0464 202° Southwest 466 536 36,000  Level Atlanta Center
08:26AM 35.8492 -80.1064 202° Southwest 466 536 36,000  Level Atlanta Center
08:27AM 35.7322 -80.1656 202° Southwest 466 536 36,000  Level Atlanta Center
08:28AM 35.6111 -80.2250 202° Southwest 466 536 36,000  Level Atlanta Center
08:29AM 35.5022 -80.2786 201° Southwest 466 536 36,000  Level Atlanta Center
08:30AM 35.3850 -80.3347 201° Southwest 466 536 36,000  Level Atlanta Center
08:32AM 35.1147 -80.4642 201° Southwest 466 536 36,000  Level Jacksonville Center
08:33AM 34.9947 -80.5208 202° Southwest 472 543 36,000  Level Jacksonville Center
08:34AM 34.8728 -80.5797 200° South 465 535 36,000  Level Jacksonville Center
08:35AM 34.7694 -80.6256 201° Southwest 462 532 36,000 -60 Level Jacksonville Center
08:36AM 34.6494 -80.6817 203° Southwest 462 532 35,900  Descending Jacksonville Center
08:37AM 34.5214 -80.7481 201° Southwest 489 563 36,000  Climbing Jacksonville Center
08:38AM 34.3992 -80.8064 193° South 489 563 36,000  Level Jacksonville Center
08:42AM 33.9006 -80.9458 187° South 476 548 36,000  Level Jacksonville Center
08:47AM 33.2406 -81.0447 187° South 483 556 36,000  Level Jacksonville Center
08:48AM 33.1114 -81.0647 186° South 483 556 36,000  Level Jacksonville Center
08:49AM 32.9803 -81.0825 187° South 483 556 36,000 -60 Level Jacksonville Center
08:50AM 32.8469 -81.1025 186° South 483 556 35,900  Descending Jacksonville Center
08:51AM 32.7178 -81.1197 185° South 483 556 36,000  Climbing Jacksonville Center
08:52AM 32.5697 -81.1350 180° South 478 550 36,000  Level Jacksonville Center
08:53AM 32.4383 -81.1350 180° South 478 550 36,000 -300 Level Jacksonville Center
08:54AM 32.3006 -81.1353 178° South 490 564 35,400 -600 Descending Jacksonville Center
08:55AM 32.1625 -81.1306 181° South 499 574 34,900 -480 Descending Jacksonville Center
08:56AM 32.0269 -81.1331 179° South 485 558 34,500 -480 Descending Jacksonville Center
08:57AM 31.8911 -81.1308 179° South 485 558 34,000 -300 Descending Jacksonville Center
08:58AM 31.7575 -81.1286 180° South 485 558 34,000  Level Jacksonville Center
08:59AM 31.6219 -81.1286 179° South 491 565 34,000  Level Jacksonville Center
09:00AM 31.4986 -81.1261 180° South 496 571 34,000  Level Jacksonville Center
09:01AM 31.3483 -81.1264 179° South 496 571 34,000  Level Jacksonville Center
09:02AM 31.2125 -81.1242 181° South 496 571 34,000  Level Jacksonville Center
09:03AM 31.1042 -81.1261 178° South 496 571 34,000  Level Jacksonville Center
09:04AM 30.9558 -81.1194 181° South 496 571 34,000  Level Jacksonville Center
09:05AM 30.8200 -81.1219 179° South 496 571 34,000 -60 Level Jacksonville Center
09:06AM 30.6842 -81.1194 181° South 496 571 33,900  Descending Jacksonville Center
09:07AM 30.5528 -81.1219 179° South 491 565 34,000  Climbing Jacksonville Center
09:08AM 30.4150 -81.1197 179° South 491 565 34,000  Level Jacksonville Center
09:09AM 30.2792 -81.1175 180° South 491 565 34,000 -1,260 Level Jacksonville Center
09:12AM 29.8783 -81.1153 180° South 485 558 29,100 -2,040 Descending Jacksonville Center
09:13AM 29.7386 -81.1153 180° South 496 571 25,900 -3,180 Descending Jacksonville Center
09:14AM 29.6008 -81.1156 180° South 491 565 22,800 -3,000 Descending Jacksonville Center
09:15AM 29.4756 -81.1153 180° South 478 550 20,000 -2,880 Descending Jacksonville Center
09:16AM 29.3503 -81.1153 177° South 460 529 17,100 -2,880 Descending Jacksonville Center
09:17AM 29.2353 -81.1078 176° South 437 503 14,200 -2,100 Descending Jacksonville Center
09:18AM 29.1244 -81.0981 177° South 415 478 12,900 -1,140 Descending Jacksonville Center
09:19AM 29.0283 -81.0925 171° South 380 437 12,000 -780 Descending Jacksonville Center
09:20AM 28.9469 -81.0775 172° South 340 391 11,400 -1,080 Descending Jacksonville Center
09:21AM 28.8631 -81.0647 168° South 315 362 9,900 -1,740 Descending Jacksonville Center
09:22AM 28.8000 -81.0500 221° Southwest 291 335 8,700 -1,620 Descending Orlando TRACON
09:23AM 28.7500 -81.1000 258° West 255 293 7,500 -1,320 Descending Orlando TRACON
09:23AM 28.7450 -81.1261 230° Southwest 230 265 6,900 -1,500 Descending Jacksonville Center
09:24AM 28.7061 -81.1789 219° Southwest 221 254 5,300 -1,560 Descending Jacksonville Center
09:25AM 28.6567 -81.2247 220° Southwest 226 260 3,800 -1,200 Descending Jacksonville Center
09:26AM 28.6092 -81.2703 204° Southwest 226 260 2,900 -780 Descending Jacksonville Center
09:27AM 28.5833 -81.2833 180° South 203 234 2,600 -840 Descending Orlando TRACON
09:28AM 28.5333 -81.2833 180° South 191 220 1,700 -900 Descending Orlando TRACON
09:29AM 28.4833 -81.2833 174° South 150 173 900 -840 Descending Orlando TRACON
09:36AM 27.6297 -81.1774 354° North  Level FlightAware Approximate
09:37AM 27.7446 -81.1915 354° North  Level FlightAware Approximate
09:38AM 27.8594 -81.2057 354° North  Level FlightAware Approximate
09:39AM 27.9743 -81.2199 354° North  Level FlightAware Approximate